sensor_id;sensor_type;location;lat;lon;timestamp;pressure;altitude;pressure_sealevel;temperature;humidity
38616;BME280;24370;51.986;4.666;2023-05-27T00:00:25;103094.28;;;19.02;40.68
38616;BME280;24370;51.986;4.666;2023-05-27T00:02:51;103101.66;;;18.63;41.88
38616;BME280;24370;51.986;4.666;2023-05-27T00:05:16;103099.38;;;18.13;42.59
38616;BME280;24370;51.986;4.666;2023-05-27T00:07:42;103087.22;;;19.01;40.90
38616;BME280;24370;51.986;4.666;2023-05-27T00:10:07;103101.63;;;19.56;39.56
38616;BME280;24370;51.986;4.666;2023-05-27T00:12:33;103092.13;;;19.41;40.30
38616;BME280;24370;51.986;4.666;2023-05-27T00:14:58;103084.69;;;18.84;40.78
38616;BME280;24370;51.986;4.666;2023-05-27T00:17:24;103084.28;;;19.27;40.51
38616;BME280;24370;51.986;4.666;2023-05-27T00:19:51;103089.16;;;18.79;41.67
38616;BME280;24370;51.986;4.666;2023-05-27T00:22:17;103081.78;;;19.17;40.59
38616;BME280;24370;51.986;4.666;2023-05-27T00:24:42;103079.69;;;18.50;41.37
38616;BME280;24370;51.986;4.666;2023-05-27T00:27:08;103082.06;;;18.82;40.79
38616;BME280;24370;51.986;4.666;2023-05-27T00:29:34;103070.00;;;19.41;39.33
38616;BME280;24370;51.986;4.666;2023-05-27T00:32:02;103068.44;;;18.22;41.14
38616;BME280;24370;51.986;4.666;2023-05-27T00:34:28;103067.22;;;18.61;40.96
38616;BME280;24370;51.986;4.666;2023-05-27T00:36:53;103064.44;;;18.80;40.71
38616;BME280;24370;51.986;4.666;2023-05-27T00:39:19;103073.91;;;17.78;42.67
38616;BME280;24370;51.986;4.666;2023-05-27T00:41:48;103070.28;;;18.07;42.05
38616;BME280;24370;51.986;4.666;2023-05-27T00:44:14;103071.22;;;17.91;42.92
38616;BME280;24370;51.986;4.666;2023-05-27T00:46:39;103068.47;;;18.12;41.93
38616;BME280;24370;51.986;4.666;2023-05-27T00:49:05;103062.03;;;18.47;41.52
38616;BME280;24370;51.986;4.666;2023-05-27T00:51:30;103064.03;;;18.19;41.96
38616;BME280;24370;51.986;4.666;2023-05-27T00:53:56;103050.88;;;18.08;41.88
38616;BME280;24370;51.986;4.666;2023-05-27T00:56:21;103065.16;;;17.62;43.42
38616;BME280;24370;51.986;4.666;2023-05-27T00:58:47;103070.66;;;16.77;45.51
38616;BME280;24370;51.986;4.666;2023-05-27T01:01:13;103068.59;;;17.81;42.78
38616;BME280;24370;51.986;4.666;2023-05-27T01:03:38;103075.44;;;18.29;42.07
38616;BME280;24370;51.986;4.666;2023-05-27T01:06:32;103065.28;;;18.88;41.34
38616;BME280;24370;51.986;4.666;2023-05-27T01:11:42;103062.47;;;19.02;41.44
38616;BME280;24370;51.986;4.666;2023-05-27T01:14:11;103062.56;;;18.96;41.42
38616;BME280;24370;51.986;4.666;2023-05-27T01:16:38;103062.50;;;18.99;40.89
38616;BME280;24370;51.986;4.666;2023-05-27T01:19:13;103057.59;;;18.54;41.71
38616;BME280;24370;51.986;4.666;2023-05-27T01:21:41;103048.53;;;17.36;44.90
38616;BME280;24370;51.986;4.666;2023-05-27T01:24:10;103063.31;;;17.85;42.77
38616;BME280;24370;51.986;4.666;2023-05-27T01:26:36;103049.91;;;18.19;42.89
38616;BME280;24370;51.986;4.666;2023-05-27T01:29:02;103061.59;;;17.80;43.18
38616;BME280;24370;51.986;4.666;2023-05-27T01:31:34;103052.88;;;18.90;41.23
38616;BME280;24370;51.986;4.666;2023-05-27T01:34:05;103037.97;;;18.78;41.86
38616;BME280;24370;51.986;4.666;2023-05-27T01:36:38;103053.75;;;17.57;43.64
38616;BME280;24370;51.986;4.666;2023-05-27T01:39:05;103058.19;;;17.44;44.20
38616;BME280;24370;51.986;4.666;2023-05-27T01:41:34;103058.25;;;17.35;44.58
38616;BME280;24370;51.986;4.666;2023-05-27T01:44:00;103043.53;;;18.44;42.31
38616;BME280;24370;51.986;4.666;2023-05-27T01:46:25;103048.38;;;17.74;42.98
38616;BME280;24370;51.986;4.666;2023-05-27T01:48:50;103051.25;;;17.03;45.29
38616;BME280;24370;51.986;4.666;2023-05-27T01:51:16;103047.56;;;17.55;43.94
38616;BME280;24370;51.986;4.666;2023-05-27T01:53:41;103054.75;;;17.27;44.57
38616;BME280;24370;51.986;4.666;2023-05-27T01:56:07;103040.06;;;18.36;42.38
38616;BME280;24370;51.986;4.666;2023-05-27T01:58:32;103056.22;;;17.96;43.00
38616;BME280;24370;51.986;4.666;2023-05-27T02:00:57;103055.28;;;18.09;42.29
38616;BME280;24370;51.986;4.666;2023-05-27T02:03:23;103055.63;;;17.20;44.09
38616;BME280;24370;51.986;4.666;2023-05-27T02:05:48;103053.91;;;16.92;45.18
38616;BME280;24370;51.986;4.666;2023-05-27T02:08:14;103054.81;;;17.02;45.49
38616;BME280;24370;51.986;4.666;2023-05-27T02:10:39;103057.34;;;17.39;43.76
38616;BME280;24370;51.986;4.666;2023-05-27T02:13:04;103049.50;;;16.57;45.66
38616;BME280;24370;51.986;4.666;2023-05-27T02:15:30;103051.25;;;16.78;44.96
38616;BME280;24370;51.986;4.666;2023-05-27T02:17:56;103047.50;;;17.69;43.91
38616;BME280;24370;51.986;4.666;2023-05-27T02:20:22;103047.69;;;17.18;44.79
38616;BME280;24370;51.986;4.666;2023-05-27T02:22:49;103052.91;;;17.41;44.25
38616;BME280;24370;51.986;4.666;2023-05-27T02:25:15;103054.59;;;17.61;43.63
38616;BME280;24370;51.986;4.666;2023-05-27T02:27:41;103053.03;;;16.76;45.10
38616;BME280;24370;51.986;4.666;2023-05-27T02:30:09;103056.53;;;17.19;44.75
38616;BME280;24370;51.986;4.666;2023-05-27T02:32:35;103047.75;;;17.00;44.19
38616;BME280;24370;51.986;4.666;2023-05-27T02:35:00;103047.53;;;17.64;43.80
38616;BME280;24370;51.986;4.666;2023-05-27T02:37:26;103050.38;;;16.67;45.28
38616;BME280;24370;51.986;4.666;2023-05-27T02:39:53;103047.69;;;17.20;43.84
38616;BME280;24370;51.986;4.666;2023-05-27T02:42:19;103049.28;;;17.67;43.25
38616;BME280;24370;51.986;4.666;2023-05-27T02:44:44;103045.00;;;17.40;44.65
38616;BME280;24370;51.986;4.666;2023-05-27T02:47:10;103044.78;;;17.92;42.85
38616;BME280;24370;51.986;4.666;2023-05-27T02:49:36;103050.28;;;17.43;43.75
38616;BME280;24370;51.986;4.666;2023-05-27T02:52:01;103051.22;;;17.14;44.58
38616;BME280;24370;51.986;4.666;2023-05-27T02:54:26;103056.34;;;17.68;43.54
38616;BME280;24370;51.986;4.666;2023-05-27T02:56:52;103047.75;;;16.98;44.96
38616;BME280;24370;51.986;4.666;2023-05-27T02:59:17;103049.50;;;16.31;46.00
38616;BME280;24370;51.986;4.666;2023-05-27T03:01:43;103045.09;;;17.04;44.52
38616;BME280;24370;51.986;4.666;2023-05-27T03:04:08;103049.41;;;17.33;43.67
38616;BME280;24370;51.986;4.666;2023-05-27T03:06:33;103051.22;;;17.25;44.68
38616;BME280;24370;51.986;4.666;2023-05-27T03:08:59;103050.41;;;16.64;45.58
38616;BME280;24370;51.986;4.666;2023-05-27T03:11:25;103046.72;;;17.52;43.99
38616;BME280;24370;51.986;4.666;2023-05-27T03:13:51;103040.66;;;17.19;44.09
38616;BME280;24370;51.986;4.666;2023-05-27T03:16:16;103039.75;;;17.26;43.67
38616;BME280;24370;51.986;4.666;2023-05-27T03:18:45;103038.94;;;16.96;44.92
38616;BME280;24370;51.986;4.666;2023-05-27T03:21:10;103035.44;;;16.82;44.74
38616;BME280;24370;51.986;4.666;2023-05-27T03:23:36;103044.84;;;17.71;43.37
38616;BME280;24370;51.986;4.666;2023-05-27T03:26:01;103045.84;;;17.50;43.58
38616;BME280;24370;51.986;4.666;2023-05-27T03:28:27;103047.75;;;16.95;44.62
38616;BME280;24370;51.986;4.666;2023-05-27T03:30:52;103042.47;;;16.58;45.97
38616;BME280;24370;51.986;4.666;2023-05-27T03:33:22;103045.03;;;17.30;44.22
38616;BME280;24370;51.986;4.666;2023-05-27T03:35:48;103049.47;;;17.18;44.33
38616;BME280;24370;51.986;4.666;2023-05-27T03:38:13;103044.25;;;16.54;45.18
38616;BME280;24370;51.986;4.666;2023-05-27T03:40:39;103031.91;;;16.73;45.46
38616;BME280;24370;51.986;4.666;2023-05-27T03:43:04;103037.19;;;16.70;45.51
38616;BME280;24370;51.986;4.666;2023-05-27T03:45:30;103034.44;;;15.85;47.17
38616;BME280;24370;51.986;4.666;2023-05-27T03:47:56;103029.28;;;16.62;46.19
38616;BME280;24370;51.986;4.666;2023-05-27T03:50:21;103026.59;;;17.04;45.38
38616;BME280;24370;51.986;4.666;2023-05-27T03:52:46;103025.69;;;17.13;44.75
38616;BME280;24370;51.986;4.666;2023-05-27T03:55:12;103024.75;;;17.37;44.98
38616;BME280;24370;51.986;4.666;2023-05-27T03:57:37;103021.31;;;16.96;45.05
38616;BME280;24370;51.986;4.666;2023-05-27T04:00:03;103018.72;;;16.62;45.59
38616;BME280;24370;51.986;4.666;2023-05-27T04:02:38;103026.59;;;17.04;45.40
38616;BME280;24370;51.986;4.666;2023-05-27T04:05:04;103016.94;;;16.99;45.62
38616;BME280;24370;51.986;4.666;2023-05-27T04:07:30;103014.28;;;16.91;45.72
38616;BME280;24370;51.986;4.666;2023-05-27T04:09:56;103015.19;;;16.90;45.21
38616;BME280;24370;51.986;4.666;2023-05-27T04:12:22;103019.56;;;16.91;45.22
38616;BME280;24370;51.986;4.666;2023-05-27T04:14:47;103020.47;;;16.25;46.08
38616;BME280;24370;51.986;4.666;2023-05-27T04:17:12;103010.69;;;17.20;44.95
38616;BME280;24370;51.986;4.666;2023-05-27T04:19:38;103015.09;;;17.30;44.76
38616;BME280;24370;51.986;4.666;2023-05-27T04:22:04;103016.78;;;17.42;44.59
38616;BME280;24370;51.986;4.666;2023-05-27T04:24:30;103015.91;;;17.48;44.33
38616;BME280;24370;51.986;4.666;2023-05-27T04:26:55;103015.84;;;17.54;44.08
38616;BME280;24370;51.986;4.666;2023-05-27T04:29:20;103018.38;;;17.78;43.80
38616;BME280;24370;51.986;4.666;2023-05-27T04:31:48;103023.88;;;17.30;43.98
38616;BME280;24370;51.986;4.666;2023-05-27T04:34:13;103014.13;;;17.46;43.93
38616;BME280;24370;51.986;4.666;2023-05-27T04:36:39;103024.84;;;17.09;45.18
38616;BME280;24370;51.986;4.666;2023-05-27T04:39:04;103022.00;;;17.62;44.35
38616;BME280;24370;51.986;4.666;2023-05-27T04:41:30;103021.25;;;17.26;45.15
38616;BME280;24370;51.986;4.666;2023-05-27T04:43:57;103015.88;;;18.76;42.75
38616;BME280;24370;51.986;4.666;2023-05-27T04:46:24;103010.97;;;19.93;40.92
38616;BME280;24370;51.986;4.666;2023-05-27T04:48:51;103008.22;;;20.01;40.55
38616;BME280;24370;51.986;4.666;2023-05-27T04:51:17;103022.66;;;19.81;40.06
38616;BME280;24370;51.986;4.666;2023-05-27T04:53:45;103025.50;;;18.90;40.65
38616;BME280;24370;51.986;4.666;2023-05-27T04:56:10;103023.94;;;18.64;41.23
38616;BME280;24370;51.986;4.666;2023-05-27T04:58:39;103028.19;;;17.58;43.93
38616;BME280;24370;51.986;4.666;2023-05-27T05:01:04;103023.03;;;18.71;41.56
38616;BME280;24370;51.986;4.666;2023-05-27T05:03:30;103015.50;;;18.22;43.39
38616;BME280;24370;51.986;4.666;2023-05-27T05:06:04;103019.44;;;17.43;44.48
38616;BME280;24370;51.986;4.666;2023-05-27T05:08:30;103021.00;;;17.81;43.91
38616;BME280;24370;51.986;4.666;2023-05-27T05:10:55;103007.03;;;17.55;44.11
38616;BME280;24370;51.986;4.666;2023-05-27T05:13:21;103010.72;;;17.17;44.63
38616;BME280;24370;51.986;4.666;2023-05-27T05:15:46;103004.69;;;18.45;42.62
38616;BME280;24370;51.986;4.666;2023-05-27T05:18:12;102999.63;;;18.19;42.64
38616;BME280;24370;51.986;4.666;2023-05-27T05:20:38;103010.47;;;17.75;43.57
38616;BME280;24370;51.986;4.666;2023-05-27T05:23:03;102997.81;;;18.24;42.37
38616;BME280;24370;51.986;4.666;2023-05-27T05:25:29;103001.72;;;18.80;41.65
38616;BME280;24370;51.986;4.666;2023-05-27T05:28:03;103008.38;;;18.27;42.79
38616;BME280;24370;51.986;4.666;2023-05-27T05:30:28;102997.56;;;18.55;42.52
38616;BME280;24370;51.986;4.666;2023-05-27T05:32:53;102998.03;;;17.90;43.39
38616;BME280;24370;51.986;4.666;2023-05-27T05:35:19;102995.25;;;18.11;43.11
38616;BME280;24370;51.986;4.666;2023-05-27T05:37:45;102983.63;;;18.34;42.32
38616;BME280;24370;51.986;4.666;2023-05-27T05:40:11;102999.88;;;17.78;44.02
38616;BME280;24370;51.986;4.666;2023-05-27T05:42:36;102996.41;;;17.61;44.01
38616;BME280;24370;51.986;4.666;2023-05-27T05:45:03;102994.97;;;18.47;42.82
38616;BME280;24370;51.986;4.666;2023-05-27T05:47:28;102988.00;;;18.38;42.80
38616;BME280;24370;51.986;4.666;2023-05-27T05:49:54;102988.03;;;19.24;41.11
38616;BME280;24370;51.986;4.666;2023-05-27T05:52:19;102982.00;;;19.76;40.41
38616;BME280;24370;51.986;4.666;2023-05-27T05:54:44;102979.25;;;19.19;41.56
38616;BME280;24370;51.986;4.666;2023-05-27T05:57:10;102970.75;;;18.89;41.58
38616;BME280;24370;51.986;4.666;2023-05-27T05:59:35;102983.06;;;18.93;41.42
38616;BME280;24370;51.986;4.666;2023-05-27T06:02:01;102972.09;;;19.92;40.31
38616;BME280;24370;51.986;4.666;2023-05-27T06:04:26;102977.81;;;18.87;41.66
38616;BME280;24370;51.986;4.666;2023-05-27T06:06:51;102980.91;;;19.26;40.76
38616;BME280;24370;51.986;4.666;2023-05-27T06:09:17;102984.75;;;19.69;40.75
38616;BME280;24370;51.986;4.666;2023-05-27T06:11:42;102968.47;;;20.49;39.31
38616;BME280;24370;51.986;4.666;2023-05-27T06:14:08;102966.97;;;20.33;39.19
38616;BME280;24370;51.986;4.666;2023-05-27T06:16:33;102967.84;;;19.12;41.11
38616;BME280;24370;51.986;4.666;2023-05-27T06:19:02;102968.16;;;19.56;40.50
38616;BME280;24370;51.986;4.666;2023-05-27T06:21:27;102969.13;;;18.72;42.46
38616;BME280;24370;51.986;4.666;2023-05-27T06:23:54;102961.88;;;20.21;40.26
38616;BME280;24370;51.986;4.666;2023-05-27T06:26:20;102953.13;;;21.55;37.42
38616;BME280;24370;51.986;4.666;2023-05-27T06:28:46;102950.88;;;22.46;35.32
38616;BME280;24370;51.986;4.666;2023-05-27T06:31:11;102946.41;;;24.49;33.70
38616;BME280;24370;51.986;4.666;2023-05-27T06:33:37;102930.41;;;25.68;30.02
38616;BME280;24370;51.986;4.666;2023-05-27T06:36:02;102942.78;;;24.77;31.05
38616;BME280;24370;51.986;4.666;2023-05-27T06:38:28;102937.78;;;24.68;31.22
38616;BME280;24370;51.986;4.666;2023-05-27T06:40:53;102930.97;;;25.74;29.51
38616;BME280;24370;51.986;4.666;2023-05-27T06:43:18;102929.63;;;26.69;28.58
38616;BME280;24370;51.986;4.666;2023-05-27T06:45:44;102928.97;;;27.03;28.12
38616;BME280;24370;51.986;4.666;2023-05-27T06:48:09;102919.88;;;27.81;26.64
38616;BME280;24370;51.986;4.666;2023-05-27T06:50:35;102925.34;;;27.23;27.32
38616;BME280;24370;51.986;4.666;2023-05-27T06:53:00;102920.59;;;28.37;26.73
38616;BME280;24370;51.986;4.666;2023-05-27T06:55:26;102924.03;;;27.13;27.52
38616;BME280;24370;51.986;4.666;2023-05-27T06:57:51;102917.06;;;27.28;27.84
38616;BME280;24370;51.986;4.666;2023-05-27T07:00:17;102907.31;;;27.64;27.47
38616;BME280;24370;51.986;4.666;2023-05-27T07:02:42;102915.28;;;28.02;26.61
38616;BME280;24370;51.986;4.666;2023-05-27T07:05:08;102929.63;;;27.28;27.21
38616;BME280;24370;51.986;4.666;2023-05-27T07:07:37;102919.41;;;27.90;26.59
38616;BME280;24370;51.986;4.666;2023-05-27T07:10:03;102919.84;;;28.17;25.96
38616;BME280;24370;51.986;4.666;2023-05-27T07:12:28;102923.91;;;27.16;27.08
38616;BME280;24370;51.986;4.666;2023-05-27T07:14:54;102921.38;;;26.75;28.06
38616;BME280;24370;51.986;4.666;2023-05-27T07:17:19;102919.03;;;28.33;26.01
38616;BME280;24370;51.986;4.666;2023-05-27T07:19:44;102916.34;;;29.00;25.50
38616;BME280;24370;51.986;4.666;2023-05-27T07:22:10;102916.59;;;28.46;26.13
38616;BME280;24370;51.986;4.666;2023-05-27T07:24:35;102915.06;;;27.87;26.90
38616;BME280;24370;51.986;4.666;2023-05-27T07:27:00;102905.09;;;29.87;24.72
38616;BME280;24370;51.986;4.666;2023-05-27T07:29:26;102910.09;;;30.38;24.31
38616;BME280;24370;51.986;4.666;2023-05-27T07:31:52;102907.88;;;28.40;25.88
38616;BME280;24370;51.986;4.666;2023-05-27T07:34:18;102907.78;;;30.61;23.49
38616;BME280;24370;51.986;4.666;2023-05-27T07:36:43;102913.66;;;29.00;24.44
38616;BME280;24370;51.986;4.666;2023-05-27T07:39:08;102904.75;;;28.66;26.04
38616;BME280;24370;51.986;4.666;2023-05-27T07:41:34;102906.63;;;29.13;25.87
38616;BME280;24370;51.986;4.666;2023-05-27T07:43:59;102905.56;;;28.68;25.65
38616;BME280;24370;51.986;4.666;2023-05-27T07:46:25;102889.75;;;30.76;23.79
38616;BME280;24370;51.986;4.666;2023-05-27T07:48:50;102889.19;;;31.94;21.92
38616;BME280;24370;51.986;4.666;2023-05-27T07:51:16;102882.31;;;31.36;22.67
38616;BME280;24370;51.986;4.666;2023-05-27T07:53:41;102888.41;;;30.25;23.21
38616;BME280;24370;51.986;4.666;2023-05-27T07:56:07;102891.16;;;30.54;24.12
38616;BME280;24370;51.986;4.666;2023-05-27T07:58:32;102885.16;;;30.63;23.96
38616;BME280;24370;51.986;4.666;2023-05-27T08:00:58;102885.50;;;30.14;24.15
38616;BME280;24370;51.986;4.666;2023-05-27T08:03:23;102882.00;;;31.13;22.75
38616;BME280;24370;51.986;4.666;2023-05-27T08:05:49;102876.91;;;33.64;21.52
38616;BME280;24370;51.986;4.666;2023-05-27T08:08:14;102873.47;;;34.89;20.11
38616;BME280;24370;51.986;4.666;2023-05-27T08:10:43;102876.28;;;33.96;20.31
38616;BME280;24370;51.986;4.666;2023-05-27T08:13:09;102878.88;;;33.62;21.31
38616;BME280;24370;51.986;4.666;2023-05-27T08:15:35;102873.88;;;34.50;19.79
38616;BME280;24370;51.986;4.666;2023-05-27T08:18:00;102872.28;;;35.14;19.88
38616;BME280;24370;51.986;4.666;2023-05-27T08:20:27;102869.19;;;34.41;19.70
38616;BME280;24370;51.986;4.666;2023-05-27T08:22:52;102869.88;;;34.99;18.91
38616;BME280;24370;51.986;4.666;2023-05-27T08:25:18;102867.91;;;34.79;19.48
38616;BME280;24370;51.986;4.666;2023-05-27T08:27:54;102862.16;;;33.20;20.67
38616;BME280;24370;51.986;4.666;2023-05-27T08:30:22;102863.38;;;32.29;21.17
38616;BME280;24370;51.986;4.666;2023-05-27T08:32:48;102854.34;;;34.22;20.07
38616;BME280;24370;51.986;4.666;2023-05-27T08:35:14;102858.13;;;32.64;21.07
38616;BME280;24370;51.986;4.666;2023-05-27T08:37:39;102842.78;;;34.31;20.95
38616;BME280;24370;51.986;4.666;2023-05-27T08:40:14;102838.19;;;33.98;19.75
38616;BME280;24370;51.986;4.666;2023-05-27T08:42:43;102835.69;;;31.46;21.64
38616;BME280;24370;51.986;4.666;2023-05-27T08:45:09;102825.66;;;32.64;21.73
38616;BME280;24370;51.986;4.666;2023-05-27T08:47:35;102819.56;;;33.82;21.06
38616;BME280;24370;51.986;4.666;2023-05-27T08:50:01;102824.50;;;34.11;19.90
38616;BME280;24370;51.986;4.666;2023-05-27T08:52:28;102822.56;;;35.35;18.33
38616;BME280;24370;51.986;4.666;2023-05-27T08:54:54;102822.03;;;35.83;17.54
38616;BME280;24370;51.986;4.666;2023-05-27T08:57:21;102812.19;;;35.40;18.69
38616;BME280;24370;51.986;4.666;2023-05-27T08:59:51;102811.13;;;34.76;19.31
38616;BME280;24370;51.986;4.666;2023-05-27T09:02:18;102816.59;;;34.64;19.21
38616;BME280;24370;51.986;4.666;2023-05-27T09:04:46;102807.31;;;35.43;18.53
38616;BME280;24370;51.986;4.666;2023-05-27T09:07:11;102803.09;;;35.18;18.07
38616;BME280;24370;51.986;4.666;2023-05-27T09:09:38;102801.31;;;36.63;17.33
38616;BME280;24370;51.986;4.666;2023-05-27T09:12:05;102797.66;;;37.04;17.53
38616;BME280;24370;51.986;4.666;2023-05-27T09:14:31;102787.84;;;36.72;17.35
38616;BME280;24370;51.986;4.666;2023-05-27T09:16:57;102788.03;;;37.39;16.66
38616;BME280;24370;51.986;4.666;2023-05-27T09:19:22;102793.84;;;36.65;18.53
38616;BME280;24370;51.986;4.666;2023-05-27T09:21:52;102793.00;;;35.09;19.53
38616;BME280;24370;51.986;4.666;2023-05-27T09:24:22;102785.38;;;35.56;17.69
38616;BME280;24370;51.986;4.666;2023-05-27T09:26:50;102782.66;;;36.08;20.42
38616;BME280;24370;51.986;4.666;2023-05-27T09:29:18;102790.25;;;36.45;17.87
38616;BME280;24370;51.986;4.666;2023-05-27T09:31:44;102793.94;;;34.54;20.18
38616;BME280;24370;51.986;4.666;2023-05-27T09:34:14;102784.56;;;34.24;18.89
38616;BME280;24370;51.986;4.666;2023-05-27T09:36:50;102787.75;;;35.28;18.83
38616;BME280;24370;51.986;4.666;2023-05-27T09:39:21;102787.47;;;34.66;19.08
38616;BME280;24370;51.986;4.666;2023-05-27T09:41:54;102771.81;;;35.24;20.07
38616;BME280;24370;51.986;4.666;2023-05-27T09:44:20;102777.09;;;33.70;19.93
38616;BME280;24370;51.986;4.666;2023-05-27T09:46:46;102779.31;;;33.64;19.50
38616;BME280;24370;51.986;4.666;2023-05-27T09:49:14;102776.28;;;34.92;18.38
38616;BME280;24370;51.986;4.666;2023-05-27T09:51:41;102771.75;;;35.46;18.10
38616;BME280;24370;51.986;4.666;2023-05-27T09:54:07;102776.66;;;34.44;19.61
38616;BME280;24370;51.986;4.666;2023-05-27T09:56:33;102776.91;;;34.07;19.50
38616;BME280;24370;51.986;4.666;2023-05-27T09:58:58;102756.63;;;35.00;19.55
38616;BME280;24370;51.986;4.666;2023-05-27T10:01:27;102766.69;;;33.05;19.48
38616;BME280;24370;51.986;4.666;2023-05-27T10:03:56;102760.81;;;35.25;19.28
38616;BME280;24370;51.986;4.666;2023-05-27T10:06:25;102763.56;;;34.49;19.31
38616;BME280;24370;51.986;4.666;2023-05-27T10:08:51;102756.84;;;35.72;18.45
38616;BME280;24370;51.986;4.666;2023-05-27T10:11:21;102761.72;;;34.93;18.39
38616;BME280;24370;51.986;4.666;2023-05-27T10:13:46;102769.47;;;34.65;19.85
38616;BME280;24370;51.986;4.666;2023-05-27T10:16:22;102755.81;;;34.88;18.33
38616;BME280;24370;51.986;4.666;2023-05-27T10:18:52;102748.28;;;34.92;17.62
38616;BME280;24370;51.986;4.666;2023-05-27T10:21:19;102742.66;;;35.05;18.87
38616;BME280;24370;51.986;4.666;2023-05-27T10:24:02;102749.25;;;33.56;18.95
38616;BME280;24370;51.986;4.666;2023-05-27T10:26:36;102745.75;;;34.67;19.38
38616;BME280;24370;51.986;4.666;2023-05-27T10:31:34;102741.88;;;34.49;20.02
38616;BME280;24370;51.986;4.666;2023-05-27T10:33:59;102720.47;;;35.21;19.20
38616;BME280;24370;51.986;4.666;2023-05-27T10:36:26;102726.84;;;35.83;18.06
38616;BME280;24370;51.986;4.666;2023-05-27T10:41:59;102718.34;;;35.97;18.09
38616;BME280;24370;51.986;4.666;2023-05-27T10:44:27;102727.84;;;36.23;17.78
38616;BME280;24370;51.986;4.666;2023-05-27T10:49:27;102714.31;;;35.71;17.63
38616;BME280;24370;51.986;4.666;2023-05-27T10:51:58;102707.59;;;36.66;18.10
38616;BME280;24370;51.986;4.666;2023-05-27T10:54:30;102702.69;;;36.79;16.93
38616;BME280;24370;51.986;4.666;2023-05-27T10:56:56;102692.66;;;37.09;18.16
38616;BME280;24370;51.986;4.666;2023-05-27T10:59:22;102691.19;;;38.00;16.60
38616;BME280;24370;51.986;4.666;2023-05-27T11:01:52;102694.63;;;37.37;16.35
38616;BME280;24370;51.986;4.666;2023-05-27T11:04:20;102693.94;;;37.34;16.57
38616;BME280;24370;51.986;4.666;2023-05-27T11:06:59;102683.84;;;36.17;18.01
38616;BME280;24370;51.986;4.666;2023-05-27T11:09:25;102678.41;;;35.15;17.91
38616;BME280;24370;51.986;4.666;2023-05-27T11:11:51;102672.13;;;37.62;17.06
38616;BME280;24370;51.986;4.666;2023-05-27T11:14:17;102673.66;;;37.27;17.13
38616;BME280;24370;51.986;4.666;2023-05-27T11:16:48;102670.63;;;36.83;16.96
38616;BME280;24370;51.986;4.666;2023-05-27T11:19:17;102669.88;;;35.29;18.44
38616;BME280;24370;51.986;4.666;2023-05-27T11:21:47;102660.59;;;36.93;17.93
38616;BME280;24370;51.986;4.666;2023-05-27T11:24:16;102654.38;;;37.58;17.18
38616;BME280;24370;51.986;4.666;2023-05-27T11:26:43;102653.66;;;36.79;17.82
38616;BME280;24370;51.986;4.666;2023-05-27T11:29:11;102652.91;;;36.09;17.47
38616;BME280;24370;51.986;4.666;2023-05-27T11:31:38;102648.63;;;34.92;19.22
38616;BME280;24370;51.986;4.666;2023-05-27T11:34:11;102643.53;;;33.90;18.48
38616;BME280;24370;51.986;4.666;2023-05-27T11:36:38;102637.28;;;33.90;18.42
38616;BME280;24370;51.986;4.666;2023-05-27T11:39:03;102633.72;;;34.33;17.65
38616;BME280;24370;51.986;4.666;2023-05-27T11:41:30;102632.88;;;35.07;17.62
38616;BME280;24370;51.986;4.666;2023-05-27T11:43:56;102623.00;;;34.64;17.17
38616;BME280;24370;51.986;4.666;2023-05-27T11:46:23;102611.16;;;35.79;17.21
38616;BME280;24370;51.986;4.666;2023-05-27T11:48:49;102617.66;;;33.52;18.62
38616;BME280;24370;51.986;4.666;2023-05-27T11:51:14;102614.91;;;35.16;17.79
38616;BME280;24370;51.986;4.666;2023-05-27T11:53:46;102603.50;;;36.72;17.54
38616;BME280;24370;51.986;4.666;2023-05-27T11:56:12;102602.97;;;36.49;16.81
38616;BME280;24370;51.986;4.666;2023-05-27T11:58:38;102602.13;;;35.69;17.37
38616;BME280;24370;51.986;4.666;2023-05-27T12:01:04;102608.84;;;35.33;17.21
38616;BME280;24370;51.986;4.666;2023-05-27T12:03:30;102595.63;;;35.19;17.85
38616;BME280;24370;51.986;4.666;2023-05-27T12:05:56;102604.75;;;34.87;18.47
38616;BME280;24370;51.986;4.666;2023-05-27T12:08:22;102593.03;;;33.78;17.83
38616;BME280;24370;51.986;4.666;2023-05-27T12:10:48;102592.44;;;33.40;19.04
38616;BME280;24370;51.986;4.666;2023-05-27T12:13:19;102596.97;;;33.40;19.00
38616;BME280;24370;51.986;4.666;2023-05-27T12:15:44;102584.59;;;34.04;18.70
38616;BME280;24370;51.986;4.666;2023-05-27T12:18:10;102587.53;;;34.44;18.22
38616;BME280;24370;51.986;4.666;2023-05-27T12:20:35;102582.31;;;34.20;19.26
38616;BME280;24370;51.986;4.666;2023-05-27T12:23:01;102575.47;;;32.80;19.72
38616;BME280;24370;51.986;4.666;2023-05-27T12:25:26;102571.75;;;34.17;19.06
38616;BME280;24370;51.986;4.666;2023-05-27T12:27:52;102569.41;;;33.46;19.42
38616;BME280;24370;51.986;4.666;2023-05-27T12:30:17;102566.00;;;35.16;19.33
38616;BME280;24370;51.986;4.666;2023-05-27T12:32:42;102569.63;;;34.53;19.64
38616;BME280;24370;51.986;4.666;2023-05-27T12:35:08;102558.31;;;32.33;21.20
38616;BME280;24370;51.986;4.666;2023-05-27T12:37:33;102565.22;;;33.30;20.30
38616;BME280;24370;51.986;4.666;2023-05-27T12:39:59;102553.38;;;33.09;20.91
38616;BME280;24370;51.986;4.666;2023-05-27T12:42:24;102542.53;;;33.31;19.83
38616;BME280;24370;51.986;4.666;2023-05-27T12:44:50;102547.84;;;33.33;20.71
38616;BME280;24370;51.986;4.666;2023-05-27T12:47:15;102547.06;;;33.54;19.62
38616;BME280;24370;51.986;4.666;2023-05-27T12:49:41;102545.25;;;33.54;19.41
38616;BME280;24370;51.986;4.666;2023-05-27T12:52:07;102547.56;;;34.14;19.75
38616;BME280;24370;51.986;4.666;2023-05-27T12:54:33;102540.06;;;35.33;18.91
38616;BME280;24370;51.986;4.666;2023-05-27T12:56:58;102542.41;;;35.16;19.66